Time;durP1;ratioP1;P1;durP2;ratioP2;P2;SDS_P1;SDS_P2;PMS_P1;PMS_P2;Temp;Humidity;BMP_temperature;BMP_pressure;BME280_temperature;BME280_humidity;BME280_pressure;Samples;Min_cycle;Max_cycle;Signal;HPM_P1;HPM_P2
2022/02/02 00:04:28;;;;;;;31.80;13.95;;;128.20;1612.80;;;;;;5093786;28;20028;-58
2022/02/02 00:07:13;;;;;;;26.20;13.50;;;128.10;1638.40;;;;;;5094161;28;20020;-58
2022/02/02 00:09:52;;;;;;;27.35;13.43;;;128.00;1612.80;;;;;;5093978;28;20024;-58
2022/02/02 00:18:16;;;;;;;26.67;13.82;;;128.30;1612.80;;;;;;5094223;28;20064;-58
2022/02/02 00:20:59;;;;;;;30.02;13.80;;;128.30;1612.80;;;;;;5093624;28;20044;-58
2022/02/02 00:23:37;;;;;;;30.08;12.65;;;128.50;1587.20;;;;;;5094267;28;20024;-60
2022/02/02 00:26:14;;;;;;;27.10;13.18;;;128.50;1587.20;;;;;;5093794;28;20032;-60
2022/02/02 00:28:48;;;;;;;34.83;17.63;;;128.50;1561.60;;;;;;5093965;28;20024;-60
2022/02/02 00:31:25;;;;;;;32.38;15.57;;;128.50;1587.20;;;;;;5093610;28;20048;-60
2022/02/02 00:34:01;;;;;;;31.42;14.38;;;128.50;1587.20;;;;;;5093894;28;20034;-60
2022/02/02 00:36:55;;;;;;;29.70;14.75;;;128.50;1587.20;;;;;;5093756;28;20024;-58
2022/02/02 00:39:25;;;;;;;30.77;17.30;;;128.40;1561.60;;;;;;5093698;28;20140;-60
2022/02/02 00:41:57;;;;;;;29.27;14.48;;;128.40;1561.60;;;;;;5093780;28;20515;-60
2022/02/02 00:44:29;;;;;;;30.40;14.23;;;128.40;1561.60;;;;;;5093888;28;20351;-60
2022/02/02 00:47:01;;;;;;;28.65;13.13;;;128.40;1561.60;;;;;;5093752;28;20020;-60
2022/02/02 00:49:32;;;;;;;21.75;12.55;;;128.50;1561.60;;;;;;5093659;28;20457;-58
2022/02/02 00:52:02;;;;;;;33.28;14.18;;;128.50;1561.60;;;;;;5093600;28;20343;-59
2022/02/02 00:54:33;;;;;;;28.30;14.73;;;128.50;1587.20;;;;;;5094316;28;20366;-60
2022/02/02 00:57:05;;;;;;;33.38;14.57;;;128.50;1561.60;;;;;;5093518;28;20384;-60
2022/02/02 00:59:36;;;;;;;36.72;16.90;;;128.50;1561.60;;;;;;5093727;28;20045;-58
2022/02/02 01:02:07;;;;;;;41.13;15.52;;;128.50;1561.60;;;;;;5093696;28;20028;-60
2022/02/02 01:04:40;;;;;;;33.58;17.15;;;128.50;1561.60;;;;;;5093478;28;20052;-58
2022/02/02 01:08:01;;;;;;;34.03;14.75;;;128.50;1561.60;;;;;;5093554;28;20416;-59
2022/02/02 01:10:21;;;;;;;31.27;14.40;;;128.60;1561.60;;;;;;5089304;28;20048;-59
2022/02/02 01:30:06;;;;;;;19.02;11.10;;;128.50;1561.60;;;;;;5015464;28;20032;-58
2022/02/02 01:32:38;;;;;;;22.20;10.43;;;128.50;1587.20;;;;;;5014694;28;20543;-59
2022/02/02 01:35:15;;;;;;;27.13;10.45;;;128.40;1587.20;;;;;;5014851;28;20119;-60
2022/02/02 01:37:48;;;;;;;18.52;9.68;;;128.50;1587.20;;;;;;5015529;28;20026;-59
2022/02/02 01:43:15;;;;;;;18.30;9.93;;;128.40;1587.20;;;;;;5014955;28;20030;-59
2022/02/02 01:45:57;;;;;;;22.50;11.65;;;128.40;1587.20;;;;;;5014870;28;20048;-59
2022/02/02 01:54:02;;;;;;;23.65;10.57;;;128.20;1612.80;;;;;;5039196;28;20063;-60
2022/02/02 01:56:33;;;;;;;23.77;10.40;;;128.20;1612.80;;;;;;5096722;28;20039;-58
2022/02/02 01:59:22;;;;;;;23.83;10.98;;;128.10;1638.40;;;;;;5096569;28;20416;-58
2022/02/02 02:01:54;;;;;;;24.42;11.95;;;128.00;1638.40;;;;;;5096591;28;20024;-60
2022/02/02 02:04:26;;;;;;;26.02;12.43;;;128.00;1638.40;;;;;;5096496;28;20028;-59
2022/02/02 02:06:54;;;;;;;26.40;11.75;;;128.00;1638.40;;;;;;5096565;28;20035;-58
2022/02/02 02:09:28;;;;;;;23.35;11.95;;;128.00;1612.80;;;;;;5096322;28;20357;-58
2022/02/02 02:12:05;;;;;;;24.40;12.05;;;128.10;1638.40;;;;;;5096249;28;20090;-58
2022/02/02 02:14:57;;;;;;;19.63;10.77;;;128.00;1638.40;;;;;;5096305;28;20416;-60
2022/02/02 02:17:28;;;;;;;23.55;11.10;;;128.20;1638.40;;;;;;5096266;28;20028;-59
2022/02/02 02:20:00;;;;;;;22.75;11.27;;;128.30;1638.40;;;;;;5096119;28;20355;-60
2022/02/02 02:22:35;;;;;;;26.40;11.65;;;128.30;1612.80;;;;;;5096481;28;20016;-58
2022/02/02 02:25:07;;;;;;;21.33;10.70;;;128.20;1638.40;;;;;;5096124;28;20440;-60
2022/02/02 02:27:36;;;;;;;22.00;11.48;;;128.20;1612.80;;;;;;5095683;28;20022;-59
2022/02/02 02:30:15;;;;;;;23.08;11.68;;;128.40;1638.40;;;;;;5095939;28;20107;-58
2022/02/02 02:33:15;;;;;;;30.75;12.05;;;128.40;1638.40;;;;;;5095613;28;20055;-58
2022/02/02 03:35:15;;;;;;;21.17;11.57;;;128.00;1689.60;;;;;;5095096;28;20035;-60
2022/02/02 03:55:00;;;;;;;20.13;9.65;;;128.10;1715.20;;;;;;5094664;28;20119;-59
2022/02/02 03:57:53;;;;;;;19.00;10.30;;;128.10;1715.20;;;;;;5094370;28;20028;-58
2022/02/02 04:03:47;;;;;;;17.90;10.77;;;128.00;1766.40;;;;;;5012204;28;20068;-58
2022/02/02 04:06:07;;;;;;;19.45;10.38;;;103.30;1766.40;;;;;;5012359;28;20045;-58
2022/02/02 04:08:39;;;;;;;21.83;10.52;;;103.20;1792.00;;;;;;5012378;28;20153;-58
2022/02/02 04:11:24;;;;;;;22.02;11.15;;;103.20;1766.40;;;;;;5012343;28;20092;-60
2022/02/02 05:07:28;;;;;;;120.88;87.25;;;128.40;1843.20;;;;;;5015556;28;20038;-58
2022/02/02 05:49:53;;;;;;;15.10;9.18;;;153.70;1817.60;;;;;;4937737;29;20079;-58
2022/02/02 05:52:24;;;;;;;19.30;11.95;;;153.70;1817.60;;;;;;4937678;29;20024;-60
2022/02/02 05:54:56;;;;;;;32.30;20.55;;;153.70;1817.60;;;;;;4937069;29;20095;-58
2022/02/02 05:57:32;;;;;;;30.63;21.63;;;153.70;1817.60;;;;;;4973765;28;20042;-60
2022/02/02 06:00:06;;;;;;;42.38;25.17;;;153.70;1817.60;;;;;;5043420;28;20079;-60
2022/02/02 06:02:52;;;;;;;37.92;22.30;;;153.80;1817.60;;;;;;5096588;28;20377;-59
2022/02/02 06:05:30;;;;;;;69.25;30.20;;;153.80;1817.60;;;;;;5096819;28;20016;-58
2022/02/02 06:08:02;;;;;;;118.05;50.38;;;153.90;1792.00;;;;;;5096100;28;20058;-58
2022/02/02 06:10:34;;;;;;;77.63;33.88;;;154.00;1792.00;;;;;;5095231;28;20070;-59
2022/02/02 06:13:04;;;;;;;46.97;21.73;;;153.90;1766.40;;;;;;5096367;28;20028;-58
2022/02/02 06:15:37;;;;;;;43.17;20.25;;;153.80;1792.00;;;;;;5096040;28;20027;-59
2022/02/02 06:18:09;;;;;;;29.73;14.57;;;153.70;1792.00;;;;;;5096216;28;20028;-58
2022/02/02 06:20:50;;;;;;;27.30;14.40;;;153.60;1792.00;;;;;;5095869;28;20032;-58
2022/02/02 06:23:42;;;;;;;26.23;14.52;;;153.60;1817.60;;;;;;5096073;28;20020;-58
2022/02/02 06:26:21;;;;;;;24.15;11.32;;;153.60;1792.00;;;;;;5095807;28;20374;-59
2022/02/02 06:28:56;;;;;;;18.20;10.13;;;153.70;1792.00;;;;;;5095996;28;20028;-58
2022/02/02 06:31:31;;;;;;;18.23;9.45;;;153.70;1792.00;;;;;;5095796;28;20068;-60
2022/02/02 06:34:05;;;;;;;20.17;10.38;;;153.70;1792.00;;;;;;5095692;28;20034;-60
2022/02/02 06:36:38;;;;;;;18.98;9.25;;;153.80;1740.80;;;;;;5095671;28;20382;-60
2022/02/02 06:39:10;;;;;;;16.35;7.88;;;153.80;1766.40;;;;;;5095521;28;20032;-59
2022/02/02 06:41:41;;;;;;;16.13;7.70;;;153.90;1766.40;;;;;;5095299;28;20381;-58
2022/02/02 06:44:13;;;;;;;16.75;8.40;;;154.00;1766.40;;;;;;5095507;28;20545;-59
2022/02/02 06:46:45;;;;;;;17.88;10.45;;;154.00;1740.80;;;;;;5095387;28;20052;-59
2022/02/02 06:49:18;;;;;;;18.23;9.07;;;154.00;1740.80;;;;;;5095337;28;20016;-58
2022/02/02 06:52:00;;;;;;;25.27;12.43;;;154.10;1740.80;;;;;;5095257;28;20382;-59
2022/02/02 06:55:06;;;;;;;27.58;13.27;;;154.00;1740.80;;;;;;5095240;28;20028;-60
2022/02/02 06:58:01;;;;;;;26.00;14.23;;;154.00;1740.80;;;;;;5102550;28;20039;-58
2022/02/02 07:00:59;;;;;;;24.67;14.07;;;154.00;1740.80;;;;;;5105087;28;20031;-57
2022/02/02 07:03:46;;;;;;;22.00;12.77;;;153.90;1740.80;;;;;;5103409;28;20020;-59
2022/02/02 07:14:44;;;;;;;21.10;11.60;;;154.00;1740.80;;;;;;5013186;28;20034;-62
2022/02/02 07:20:02;;;;;;;20.83;11.65;;;153.90;1740.80;;;;;;5002969;28;20503;-62
2022/02/02 07:25:45;;;;;;;23.95;11.98;;;154.00;1766.40;;;;;;4972736;28;20508;-63
2022/02/02 07:28:29;;;;;;;36.08;16.67;;;154.00;1766.40;;;;;;4970490;28;20027;-62
2022/02/02 07:33:32;;;;;;;36.00;20.52;;;154.00;1766.40;;;;;;4973432;28;20267;-57
2022/02/02 07:36:13;;;;;;;32.70;15.85;;;154.00;1766.40;;;;;;4973216;28;20047;-58
2022/02/02 07:39:07;;;;;;;41.72;16.20;;;154.00;1766.40;;;;;;4973725;28;20038;-60
2022/02/02 07:41:42;;;;;;;66.57;38.90;;;154.10;1766.40;;;;;;4973827;28;20047;-59
2022/02/02 07:44:20;;;;;;;51.15;29.33;;;154.00;1766.40;;;;;;5008286;28;20050;-58
2022/02/02 07:46:55;;;;;;;36.53;23.58;;;154.00;1792.00;;;;;;5012727;28;20127;-60
2022/02/02 07:49:32;;;;;;;60.85;37.97;;;153.90;1766.40;;;;;;5012324;28;20168;-57
2022/02/02 07:52:05;;;;;;;63.65;40.80;;;153.90;1817.60;;;;;;5012378;28;20519;-60
2022/02/02 07:54:39;;;;;;;68.60;39.40;;;153.90;1766.40;;;;;;5012273;28;20033;-58
2022/02/02 07:57:13;;;;;;;68.57;41.05;;;153.80;1817.60;;;;;;5012283;28;20477;-60
2022/02/02 08:02:27;;;;;;;75.80;37.22;;;153.80;1817.60;;;;;;5114324;28;20406;-60
2022/02/02 08:05:00;;;;;;;48.80;26.73;;;153.90;1817.60;;;;;;5114540;28;20024;-60
2022/02/02 08:07:38;;;;;;;39.65;22.00;;;153.90;1792.00;;;;;;5114486;28;20028;-60
2022/02/02 08:10:21;;;;;;;37.80;19.92;;;153.90;1817.60;;;;;;5114392;28;20043;-60
2022/02/02 08:13:00;;;;;;;40.60;21.80;;;153.90;1792.00;;;;;;5114440;28;20115;-59
2022/02/02 08:15:33;;;;;;;38.13;20.60;;;154.00;1817.60;;;;;;5114155;28;20020;-60
2022/02/02 08:18:05;;;;;;;42.88;22.00;;;154.10;1792.00;;;;;;5114231;28;20028;-58
2022/02/02 08:20:36;;;;;;;33.03;19.33;;;154.00;1817.60;;;;;;5113952;28;20042;-60
2022/02/02 08:23:08;;;;;;;37.65;21.13;;;154.00;1817.60;;;;;;5114268;28;20077;-57
2022/02/02 08:25:42;;;;;;;39.22;22.73;;;154.00;1817.60;;;;;;5114197;28;20024;-60
2022/02/02 08:28:22;;;;;;;41.72;22.65;;;154.00;1817.60;;;;;;5114340;28;20085;-60
2022/02/02 08:30:57;;;;;;;40.38;21.92;;;154.10;1792.00;;;;;;5113794;28;20477;-58
2022/02/02 08:33:34;;;;;;;32.83;19.70;;;154.10;1817.60;;;;;;5113737;28;20040;-57
2022/02/02 08:36:10;;;;;;;33.33;19.23;;;154.10;1817.60;;;;;;5114137;28;20035;-60
2022/02/02 08:38:56;;;;;;;31.40;17.85;;;154.10;1817.60;;;;;;5114166;28;20034;-57
2022/02/02 08:41:38;;;;;;;36.17;19.33;;;154.10;1843.20;;;;;;5114158;28;20115;-57
2022/02/02 08:44:19;;;;;;;36.45;20.23;;;154.10;1843.20;;;;;;5114171;28;20016;-57
2022/02/02 08:47:06;;;;;;;34.47;17.27;;;154.20;1843.20;;;;;;5114019;28;20032;-58
2022/02/02 08:49:46;;;;;;;27.17;15.07;;;154.20;1843.20;;;;;;5113796;28;20546;-57
2022/02/02 08:52:18;;;;;;;21.02;11.27;;;154.20;1868.80;;;;;;5114053;28;20077;-60
2022/02/02 08:54:58;;;;;;;20.83;12.77;;;154.20;1843.20;;;;;;5113860;28;20024;-57
2022/02/02 08:57:46;;;;;;;22.65;11.90;;;154.20;1868.80;;;;;;5114011;28;20026;-57
2022/02/02 09:00:23;;;;;;;22.58;11.52;;;154.30;1868.80;;;;;;5113822;28;20096;-60
2022/02/02 09:05:19;;;;;;;17.20;11.32;;;154.30;1868.80;;;;;;5113951;28;20026;-59
2022/02/02 09:05:43;;;;;;;21.50;11.50;;;154.30;1868.80;;;;;;5113517;28;20031;-59
2022/02/02 09:08:18;;;;;;;26.63;12.10;;;154.30;1868.80;;;;;;5113986;28;20036;-57
2022/02/02 09:25:10;;;;;;;23.90;11.48;;;154.50;1843.20;;;;;;5113725;28;20083;-57
2022/02/02 09:36:15;;;;;;;26.17;12.70;;;179.30;1920.00;;;;;;5113448;28;20084;-57
2022/02/02 09:38:45;;;;;;;21.40;12.57;;;179.40;1920.00;;;;;;5113253;28;20369;-60
2022/02/02 09:42:02;;;;;;;27.00;14.50;;;179.50;1894.40;;;;;;5113502;28;20028;-57
2022/02/02 09:44:24;;;;;;;25.50;15.10;;;179.50;1868.80;;;;;;5107925;28;20531;-57
2022/02/02 09:47:27;;;;;;;;;;;;;;;;;;;;;
2022/02/02 09:52:36;;;;;;;33.78;16.55;;;179.70;1843.20;;;;;;5117283;28;20108;-60
2022/02/02 09:55:32;;;;;;;32.10;16.67;;;179.80;1817.60;;;;;;5116701;28;20422;-58
2022/02/02 10:01:27;;;;;;;40.97;17.23;;;179.90;1817.60;;;;;;5116844;28;20063;-58
2022/02/02 10:04:42;;;;;;;31.30;16.85;;;180.00;1817.60;;;;;;5116882;28;20377;-60
2022/02/02 10:15:58;;;;;;;39.28;16.77;;;180.10;1817.60;;;;;;5116938;28;20092;-60
2022/02/02 10:18:37;;;;;;;39.75;18.35;;;204.80;1792.00;;;;;;5116586;28;20088;-59
2022/02/02 10:21:08;;;;;;;33.13;16.85;;;204.80;1792.00;;;;;;5116391;28;20074;-57
2022/02/02 10:23:41;;;;;;;34.67;17.65;;;204.80;1792.00;;;;;;5116368;28;20024;-58
2022/02/02 10:26:20;;;;;;;35.50;15.73;;;204.90;1817.60;;;;;;5116183;28;20043;-59
2022/02/02 10:28:51;;;;;;;36.20;14.10;;;204.90;1792.00;;;;;;5116321;28;20103;-58
2022/02/02 10:31:20;;;;;;;45.97;16.52;;;204.80;1817.60;;;;;;5115565;28;20075;-58
2022/02/02 10:33:47;;;;;;;56.75;22.70;;;204.90;1817.60;;;;;;5105934;28;20035;-60
2022/02/02 10:36:20;;;;;;;79.18;24.38;;;204.90;1817.60;;;;;;5100804;28;20027;-59
2022/02/02 10:39:08;;;;;;;80.85;22.27;;;204.90;1817.60;;;;;;5103538;28;20419;-58
2022/02/02 10:41:59;;;;;;;98.18;24.13;;;204.80;1792.00;;;;;;5075069;28;20040;-58
2022/02/02 10:44:39;;;;;;;92.22;23.42;;;204.80;1792.00;;;;;;5075249;28;20021;-60
2022/02/02 10:47:29;;;;;;;43.17;18.98;;;180.10;1792.00;;;;;;5100182;28;20050;-61
2022/02/02 10:50:21;;;;;;;57.38;22.63;;;204.80;1792.00;;;;;;5097746;28;20107;-58
2022/02/02 11:01:33;;;;;;;50.65;21.83;;;180.10;1817.60;;;;;;5020535;28;20033;-58
2022/02/02 11:06:53;;;;;;;37.58;19.83;;;180.10;1817.60;;;;;;5023532;28;20040;-58
2022/02/02 11:09:23;;;;;;;30.83;16.55;;;180.10;1843.20;;;;;;5022802;28;20018;-59
2022/02/02 11:11:54;;;;;;;72.95;20.65;;;204.80;1843.20;;;;;;5018838;28;20037;-59
2022/02/02 11:14:41;;;;;;;38.88;16.50;;;204.80;1843.20;;;;;;5022023;28;20029;-57
2022/02/02 11:17:33;;;;;;;26.90;14.90;;;204.90;1843.20;;;;;;5023159;28;20025;-58
2022/02/02 11:20:07;;;;;;;27.27;15.15;;;205.00;1868.80;;;;;;5021258;28;20076;-59
2022/02/02 11:22:49;;;;;;;28.48;14.60;;;205.00;1868.80;;;;;;5019778;28;20048;-58
2022/02/02 11:25:16;;;;;;;30.00;15.65;;;205.00;1868.80;;;;;;5020494;28;20026;-58
2022/02/02 11:27:46;;;;;;;25.65;12.63;;;205.10;1868.80;;;;;;5021587;28;20022;-58
2022/02/02 11:30:23;;;;;;;28.88;13.40;;;205.10;1843.20;;;;;;5076958;28;20362;-59
2022/02/02 11:32:54;;;;;;;24.85;13.77;;;205.10;1843.20;;;;;;5103190;28;20036;-57
2022/02/02 11:35:52;;;;;;;27.30;15.85;;;205.10;1817.60;;;;;;5103777;28;20047;-57
2022/02/02 11:38:38;;;;;;;28.10;15.57;;;205.20;1817.60;;;;;;5102877;28;20017;-58
2022/02/02 11:41:13;;;;;;;24.38;13.13;;;205.20;1817.60;;;;;;5104651;28;20126;-59
2022/02/02 11:44:19;;;;;;;26.17;14.05;;;205.20;1792.00;;;;;;5104604;28;20450;-58
2022/02/02 11:46:51;;;;;;;24.45;13.02;;;205.20;1817.60;;;;;;5104901;28;20037;-57
2022/02/02 11:49:23;;;;;;;26.13;13.88;;;205.20;1817.60;;;;;;5104341;28;20035;-58
2022/02/02 11:52:02;;;;;;;26.67;15.23;;;205.30;1817.60;;;;;;5100520;28;20024;-60
2022/02/02 11:54:37;;;;;;;37.40;17.63;;;205.30;1817.60;;;;;;5099481;28;20036;-59
2022/02/02 11:57:20;;;;;;;30.42;15.25;;;205.40;1817.60;;;;;;5094088;28;20031;-60
2022/02/02 12:09:04;;;;;;;21.35;12.10;;;205.70;1843.20;;;;;;5094363;28;20454;-58
2022/02/02 12:18:55;;;;;;;22.52;11.20;;;230.40;1868.80;;;;;;5093811;28;20055;-60
2022/02/02 12:55:59;;;;;;;17.33;10.15;;;231.00;1792.00;;;;;;5093545;28;20054;-58
2022/02/02 12:58:27;;;;;;;17.38;10.18;;;231.00;1792.00;;;;;;5093330;28;20119;-60
2022/02/02 13:01:13;;;;;;;19.00;11.00;;;231.00;1792.00;;;;;;5093458;28;20044;-58
2022/02/02 13:03:45;;;;;;;27.77;12.90;;;231.00;1792.00;;;;;;5093410;28;20024;-60
2022/02/02 13:06:21;;;;;;;21.30;11.80;;;231.00;1792.00;;;;;;5093207;28;20115;-60
2022/02/02 13:08:54;;;;;;;16.88;10.75;;;231.00;1817.60;;;;;;5093453;28;20035;-60
2022/02/02 13:11:31;;;;;;;15.82;10.07;;;231.00;1817.60;;;;;;5093304;28;20053;-60
2022/02/02 13:14:10;;;;;;;16.13;10.25;;;231.00;1792.00;;;;;;5093642;28;20044;-59
2022/02/02 13:16:42;;;;;;;15.40;9.48;;;231.00;1766.40;;;;;;5093326;28;20020;-60
2022/02/02 13:19:30;;;;;;;12.20;7.07;;;231.00;1740.80;;;;;;5093578;28;20366;-60
2022/02/02 13:22:12;;;;;;;14.68;7.57;;;231.00;1740.80;;;;;;5097451;28;20028;-58
2022/02/02 13:24:45;;;;;;;15.48;9.32;;;231.00;1740.80;;;;;;5097105;28;20085;-60
2022/02/02 13:27:20;;;;;;;17.65;10.50;;;231.00;1740.80;;;;;;5097117;28;20488;-58
2022/02/02 13:29:54;;;;;;;14.90;9.27;;;230.90;1766.40;;;;;;5096966;28;20020;-58
2022/02/02 13:32:49;;;;;;;15.35;9.02;;;230.90;1766.40;;;;;;5096772;28;20047;-59
2022/02/02 13:35:27;;;;;;;16.98;9.68;;;230.90;1766.40;;;;;;5096863;28;20034;-58
2022/02/02 13:38:13;;;;;;;16.58;10.40;;;230.90;1766.40;;;;;;5096989;28;20474;-58
2022/02/02 13:52:29;;;;;;;24.50;13.18;;;230.70;1766.40;;;;;;5096639;28;20054;-59
2022/02/02 13:55:28;;;;;;;22.25;11.70;;;230.70;1766.40;;;;;;5096459;28;20042;-58
2022/02/02 13:58:34;;;;;;;20.95;9.95;;;230.60;1792.00;;;;;;5096588;28;20103;-60
2022/02/02 14:31:56;;;;;;;28.75;16.75;;;205.50;1920.00;;;;;;4973510;28;20058;-60
2022/02/02 14:34:27;;;;;;;30.88;17.38;;;205.50;1920.00;;;;;;4975035;28;20534;-60
2022/02/02 14:36:58;;;;;;;27.90;16.98;;;205.50;1920.00;;;;;;4974939;28;20035;-58
2022/02/02 14:39:45;;;;;;;28.42;15.35;;;205.60;1920.00;;;;;;4974528;28;20049;-59
2022/02/02 14:42:21;;;;;;;33.60;17.75;;;205.60;1920.00;;;;;;4974774;28;20532;-60
2022/02/02 14:44:58;;;;;;;66.00;30.95;;;205.60;1920.00;;;;;;4974472;28;20034;-58
2022/02/02 14:47:36;;;;;;;43.15;21.67;;;205.70;1945.60;;;;;;5013447;28;20026;-60
2022/02/02 14:50:17;;;;;;;33.88;15.43;;;205.70;1945.60;;;;;;5013396;28;20030;-60
2022/02/02 15:28:42;;;;;;;31.80;18.55;;;205.70;1920.00;;;;;;5103909;28;20086;-61
2022/02/02 15:31:09;;;;;;;26.70;15.70;;;205.70;1894.40;;;;;;5103047;28;20024;-62
2022/02/02 15:33:36;;;;;;;24.35;13.35;;;230.40;1894.40;;;;;;5099796;28;20016;-60
2022/02/02 15:38:53;;;;;;;24.85;12.40;;;230.40;1843.20;;;;;;5098184;28;20034;-61
2022/02/02 15:41:29;;;;;;;23.55;12.80;;;230.50;1792.00;;;;;;5100258;28;20110;-64
2022/02/02 16:03:15;;;;;;;24.02;12.43;;;230.40;1817.60;;;;;;5073816;28;20035;-63
2022/02/02 16:05:50;;;;;;;27.90;14.65;;;205.70;1817.60;;;;;;5073650;28;20037;-64
2022/02/02 16:08:24;;;;;;;38.13;17.65;;;205.60;1817.60;;;;;;5073698;28;20055;-60
2022/02/02 16:16:39;;;;;;;14.85;6.97;;;205.70;1792.00;;;;;;5075157;28;20082;-63
2022/02/02 16:38:25;;;;;;;50.97;28.00;;;205.20;1766.40;;;;;;5093085;28;20051;-62
2022/02/02 16:40:57;;;;;;;39.55;20.30;;;205.20;1766.40;;;;;;5093404;28;20072;-61
2022/02/02 16:43:28;;;;;;;52.17;28.92;;;205.20;1766.40;;;;;;5093370;28;20031;-61
2022/02/02 16:46:00;;;;;;;71.97;45.53;;;205.10;1766.40;;;;;;5092902;28;20047;-61
2022/02/02 16:48:32;;;;;;;74.18;46.45;;;205.10;1766.40;;;;;;5093459;28;20024;-61
2022/02/02 16:51:04;;;;;;;49.03;30.30;;;205.10;1740.80;;;;;;5093559;28;20032;-61
2022/02/02 16:53:42;;;;;;;42.00;23.75;;;205.00;1740.80;;;;;;5093265;28;20032;-61
2022/02/02 17:24:31;;;;;;;52.28;20.23;;;204.80;1740.80;;;;;;5096727;28;20046;-61
2022/02/02 17:32:31;;;;;;;33.88;16.63;;;180.10;1740.80;;;;;;5096376;28;20040;-61
2022/02/02 17:35:22;;;;;;;38.20;15.88;;;180.10;1740.80;;;;;;5096587;28;20028;-61
2022/02/02 17:40:21;;;;;;;45.17;19.30;;;180.00;1740.80;;;;;;5096832;28;20043;-61
2022/02/02 18:13:28;;;;;;;29.35;11.25;;;180.10;1766.40;;;;;;5096063;28;20134;-61
2022/02/02 18:21:14;;;;;;;28.33;11.68;;;180.10;1740.80;;;;;;5033519;28;20049;-61
2022/02/02 18:23:50;;;;;;;29.27;13.30;;;180.10;1740.80;;;;;;5033421;28;20026;-61
2022/02/02 18:32:08;;;;;;;25.55;10.90;;;204.80;1740.80;;;;;;5033215;28;20068;-62
2022/02/02 18:55:34;;;;;;;32.20;11.57;;;180.10;1740.80;;;;;;5104501;28;20020;-61
2022/02/02 19:55:49;;;;;;;17.13;8.20;;;179.50;1740.80;;;;;;5104222;28;20400;-61
2022/02/02 20:09:22;;;;;;;17.80;8.18;;;179.30;1766.40;;;;;;5102384;28;20013;-62
2022/02/02 20:11:46;;;;;;;14.88;6.18;;;179.40;1766.40;;;;;;5102834;28;20066;-61
2022/02/02 20:14:15;;;;;;;11.00;5.95;;;179.40;1740.80;;;;;;5108114;28;20051;-61
2022/02/02 20:16:46;;;;;;;10.10;5.45;;;179.40;1740.80;;;;;;5108408;28;20098;-61
2022/02/02 20:19:19;;;;;;;18.50;9.45;;;179.40;1740.80;;;;;;5098754;28;20070;-62
2022/02/02 20:21:53;;;;;;;36.72;20.02;;;179.30;1740.80;;;;;;5101569;28;20037;-61
2022/02/02 20:24:26;;;;;;;;;;;179.30;1766.40;;;;;;5101631;28;20085;-61
2022/02/02 20:26:53;;;;;;;123.07;58.25;;;179.30;1740.80;;;;;;5098835;28;19911;-61
2022/02/02 20:29:22;;;;;;;60.13;30.10;;;179.30;1766.40;;;;;;5101660;28;20035;-61
2022/02/02 20:31:50;;;;;;;34.50;16.60;;;179.30;1740.80;;;;;;5103062;28;20043;-61
2022/02/02 20:34:16;;;;;;;31.27;16.27;;;179.30;1766.40;;;;;;5102001;28;20027;-61
2022/02/02 20:36:46;;;;;;;31.65;17.73;;;179.20;1766.40;;;;;;5101612;28;20020;-61
2022/02/02 20:39:35;;;;;;;43.72;25.77;;;179.30;1740.80;;;;;;5098604;28;20097;-61
2022/02/02 20:42:07;;;;;;;28.08;15.70;;;179.30;1766.40;;;;;;5099376;28;20156;-61
2022/02/02 20:45:07;;;;;;;20.75;10.88;;;179.30;1740.80;;;;;;5103110;28;20020;-62
2022/02/02 21:14:39;;;;;;;;;;;154.50;1740.80;;;;;;5094994;28;20028;-61
2022/02/02 21:17:26;;;;;;;16.60;7.57;;;154.50;1740.80;;;;;;5095177;28;20003;-61
2022/02/02 21:22:21;;;;;;;27.05;15.40;;;154.40;1766.40;;;;;;5113516;28;20103;-61
2022/02/02 21:25:06;;;;;;;19.90;10.98;;;154.40;1740.80;;;;;;5113613;28;20457;-61
2022/02/02 21:27:39;;;;;;;20.50;8.85;;;154.40;1766.40;;;;;;5113171;28;20028;-61
2022/02/02 21:30:08;;;;;;;16.65;8.38;;;154.40;1766.40;;;;;;5113464;28;20039;-61
2022/02/02 21:32:38;;;;;;;14.95;7.50;;;154.40;1740.80;;;;;;5109677;28;20051;-61
2022/02/02 21:35:07;;;;;;;16.60;7.57;;;154.40;1766.40;;;;;;5107072;28;20114;-61
2022/02/02 21:37:35;;;;;;;19.98;8.07;;;154.40;1766.40;;;;;;5113106;28;20491;-61
2022/02/02 21:40:23;;;;;;;20.15;8.00;;;154.40;1766.40;;;;;;5113000;28;20031;-61
2022/02/02 21:42:50;;;;;;;16.60;7.03;;;154.40;1766.40;;;;;;5103286;28;20031;-61
2022/02/02 21:45:20;;;;;;;17.70;7.50;;;154.50;1740.80;;;;;;5106090;28;20028;-61
2022/02/02 21:47:46;;;;;;;18.17;7.50;;;154.50;1740.80;;;;;;5105339;28;20024;-61
2022/02/02 21:50:16;;;;;;;17.02;7.25;;;154.50;1740.80;;;;;;5106256;28;20020;-61
2022/02/02 21:52:46;;;;;;;13.93;6.03;;;154.50;1740.80;;;;;;5103017;28;20031;-62
2022/02/02 21:55:13;;;;;;;10.95;4.95;;;154.50;1740.80;;;;;;5105707;28;20470;-61
2022/02/02 21:57:44;;;;;;;13.98;5.18;;;154.50;1740.80;;;;;;5116353;28;20046;-62
2022/02/02 22:00:13;;;;;;;11.70;5.15;;;154.50;1740.80;;;;;;5116506;28;20031;-61
2022/02/02 22:02:41;;;;;;;12.75;5.68;;;179.20;1740.80;;;;;;5105828;28;20012;-66
2022/02/02 22:05:08;;;;;;;11.15;5.93;;;154.50;1740.80;;;;;;5105365;28;20112;-60
2022/02/02 22:07:34;;;;;;;15.45;6.55;;;154.50;1740.80;;;;;;5106932;28;20038;-60
2022/02/02 22:10:04;;;;;;;16.30;7.60;;;179.20;1740.80;;;;;;5105892;28;20028;-60
2022/02/02 22:12:33;;;;;;;18.05;10.30;;;179.20;1740.80;;;;;;5086310;28;20046;-59
2022/02/02 22:14:59;;;;;;;26.17;10.70;;;179.20;1740.80;;;;;;5106678;28;20028;-62
2022/02/02 22:17:24;;;;;;;18.20;9.70;;;179.20;1715.20;;;;;;5106097;28;20470;-61
2022/02/02 22:19:58;;;;;;;20.48;9.05;;;179.20;1740.80;;;;;;5100786;28;20042;-60
2022/02/02 22:22:25;;;;;;;18.30;9.00;;;179.20;1740.80;;;;;;5101246;28;20103;-60
2022/02/02 22:24:51;;;;;;;18.77;9.07;;;179.20;1740.80;;;;;;5096228;28;20043;-60
2022/02/02 22:27:17;;;;;;;17.58;8.80;;;179.20;1740.80;;;;;;5095908;28;20028;-60
2022/02/02 22:29:47;;;;;;;19.38;9.05;;;179.20;1740.80;;;;;;5096028;28;20424;-60
2022/02/02 22:32:17;;;;;;;16.08;8.70;;;179.20;1715.20;;;;;;5095643;28;20056;-60
2022/02/02 22:34:49;;;;;;;14.35;6.85;;;179.20;1740.80;;;;;;5096275;28;20031;-63
2022/02/02 22:37:15;;;;;;;13.00;6.30;;;179.20;1740.80;;;;;;5095804;28;20103;-61
2022/02/02 22:39:42;;;;;;;14.52;6.07;;;154.50;1740.80;;;;;;5095237;28;20127;-60
2022/02/02 22:42:10;;;;;;;13.50;6.07;;;179.20;1715.20;;;;;;5101248;28;20042;-61
2022/02/02 22:44:37;;;;;;;10.20;5.90;;;179.20;1715.20;;;;;;5104814;28;20027;-60
2022/02/02 22:47:06;;;;;;;16.17;7.93;;;154.50;1740.80;;;;;;5104885;28;20408;-61
2022/02/02 22:49:38;;;;;;;17.67;8.80;;;154.50;1715.20;;;;;;5104488;28;20013;-62
2022/02/02 22:52:04;;;;;;;18.45;8.52;;;154.50;1740.80;;;;;;5104591;28;20028;-60
2022/02/02 22:54:30;;;;;;;15.27;7.78;;;154.50;1715.20;;;;;;5105735;28;20031;-60
2022/02/02 22:56:56;;;;;;;15.95;7.10;;;154.40;1715.20;;;;;;5099149;28;20024;-60
2022/02/02 22:59:22;;;;;;;19.55;7.20;;;154.40;1740.80;;;;;;5105208;28;20538;-60
2022/02/02 23:01:55;;;;;;;18.27;6.68;;;154.40;1740.80;;;;;;5104140;28;20032;-60
2022/02/02 23:04:22;;;;;;;16.88;6.35;;;154.40;1740.80;;;;;;5104778;28;20020;-60
2022/02/02 23:06:48;;;;;;;15.13;6.45;;;154.40;1740.80;;;;;;5106076;28;20031;-59
2022/02/02 23:09:14;;;;;;;16.58;5.65;;;154.30;1740.80;;;;;;5104050;28;20030;-61
2022/02/02 23:11:42;;;;;;;18.02;5.88;;;154.30;1740.80;;;;;;5104781;28;20035;-61
2022/02/02 23:14:09;;;;;;;19.35;6.32;;;154.30;1740.80;;;;;;5103618;28;20106;-60
2022/02/02 23:16:42;;;;;;;22.95;6.00;;;154.30;1740.80;;;;;;5101539;28;20028;-60
2022/02/02 23:19:08;;;;;;;19.58;6.60;;;154.30;1740.80;;;;;;5103547;28;20055;-61
2022/02/02 23:21:35;;;;;;;22.23;6.95;;;154.30;1740.80;;;;;;5105946;28;20055;-61
2022/02/02 23:24:04;;;;;;;18.67;6.55;;;154.30;1740.80;;;;;;5104597;28;20066;-61
2022/02/02 23:26:31;;;;;;;14.80;5.63;;;154.30;1740.80;;;;;;5096073;28;20058;-62
2022/02/02 23:29:01;;;;;;;14.55;5.65;;;154.30;1740.80;;;;;;5103327;28;20101;-61
2022/02/02 23:31:28;;;;;;;14.75;5.45;;;154.30;1740.80;;;;;;5103428;28;20546;-61
2022/02/02 23:33:54;;;;;;;13.73;5.07;;;154.30;1740.80;;;;;;5100536;28;20027;-60